Time;durP1;ratioP1;P1;durP2;ratioP2;P2;SDS_P1;SDS_P2;PMS_P1;PMS_P2;Temp;Humidity;BMP_temperature;BMP_pressure;BME280_temperature;BME280_humidity;BME280_pressure;Samples;Min_cycle;Max_cycle;Signal;HPM_P1;HPM_P2
2021/07/09 00:02:19;;;;;;;15.80;14.33;;;18.90;99.90;;;;;;5014261;28;20440;-74
2021/07/09 00:04:47;;;;;;;14.43;13.13;;;18.80;99.90;;;;;;4998137;28;20464;-73
2021/07/09 00:07:16;;;;;;;16.13;12.57;;;18.80;99.90;;;;;;4994180;28;20450;-74
2021/07/09 00:09:47;;;;;;;13.63;12.13;;;18.80;99.90;;;;;;4994618;28;20566;-73
2021/07/09 00:12:16;;;;;;;14.20;12.83;;;18.80;99.90;;;;;;5005200;28;20468;-73
2021/07/09 00:14:44;;;;;;;13.50;12.23;;;18.80;99.90;;;;;;4998582;28;20561;-75
2021/07/09 00:17:13;;;;;;;14.27;12.90;;;18.70;99.90;;;;;;5013662;28;20438;-76
2021/07/09 00:19:42;;;;;;;15.37;13.50;;;18.70;99.90;;;;;;5014626;28;20467;-75
2021/07/09 00:22:11;;;;;;;15.00;13.27;;;18.70;99.90;;;;;;5008982;28;20455;-73
2021/07/09 00:24:39;;;;;;;13.83;12.53;;;18.70;99.90;;;;;;5000102;28;20441;-73
2021/07/09 00:27:09;;;;;;;14.87;13.47;;;18.70;99.90;;;;;;5001785;28;20483;-73
2021/07/09 00:29:37;;;;;;;15.60;14.10;;;18.60;99.90;;;;;;4993910;28;20499;-73
2021/07/09 00:32:06;;;;;;;15.67;12.60;;;18.70;99.90;;;;;;4993564;28;20288;-73
2021/07/09 00:34:34;;;;;;;16.43;14.40;;;18.70;99.90;;;;;;4994654;28;20961;-74
2021/07/09 00:37:03;;;;;;;16.20;14.50;;;18.70;99.90;;;;;;4995096;28;20794;-73
2021/07/09 00:39:31;;;;;;;16.50;15.10;;;18.60;99.90;;;;;;4994842;28;20664;-73
2021/07/09 00:41:59;;;;;;;16.00;14.50;;;18.60;99.90;;;;;;4996682;28;20450;-74
2021/07/09 00:44:29;;;;;;;15.20;13.63;;;18.60;99.90;;;;;;5014396;28;20434;-74
2021/07/09 00:46:57;;;;;;;16.00;13.40;;;18.50;99.90;;;;;;5012732;28;20955;-74
2021/07/09 00:49:25;;;;;;;16.20;14.50;;;18.50;99.90;;;;;;5013299;28;20446;-74
2021/07/09 00:51:53;;;;;;;15.60;14.00;;;18.50;99.90;;;;;;5014387;28;20512;-74
2021/07/09 00:54:21;;;;;;;18.40;15.50;;;18.50;99.90;;;;;;5013295;28;20471;-73
2021/07/09 00:56:51;;;;;;;15.17;13.57;;;18.40;99.90;;;;;;5012558;28;20454;-73
2021/07/09 00:59:23;;;;;;;15.73;14.30;;;18.40;99.90;;;;;;5002984;28;20507;-74
2021/07/09 01:01:56;;;;;;;15.20;13.80;;;18.40;99.90;;;;;;4995145;28;20440;-73
2021/07/09 01:04:24;;;;;;;18.47;16.73;;;18.40;99.90;;;;;;5004410;28;20504;-73
2021/07/09 01:06:52;;;;;;;12.27;11.17;;;18.40;99.90;;;;;;5012660;28;20909;-74
2021/07/09 01:09:21;;;;;;;14.53;13.13;;;18.40;99.90;;;;;;4995577;28;20502;-74
2021/07/09 01:11:51;;;;;;;15.90;14.30;;;18.40;99.90;;;;;;4993048;28;20454;-74
2021/07/09 01:14:20;;;;;;;15.73;14.13;;;18.40;99.90;;;;;;4994793;28;20990;-73
2021/07/09 01:16:49;;;;;;;16.17;14.57;;;18.40;99.90;;;;;;4992928;28;20529;-74
2021/07/09 01:19:20;;;;;;;16.07;14.53;;;18.40;99.90;;;;;;4994508;28;20443;-73
2021/07/09 01:21:50;;;;;;;14.57;13.17;;;18.40;99.90;;;;;;4993551;28;20496;-74
2021/07/09 01:24:19;;;;;;;15.77;14.23;;;18.40;99.90;;;;;;4994512;28;20432;-73
2021/07/09 01:26:48;;;;;;;16.30;13.80;;;18.40;99.90;;;;;;4996904;28;20514;-73
2021/07/09 01:29:16;;;;;;;16.40;14.70;;;18.40;99.90;;;;;;5003034;28;20543;-74
2021/07/09 01:31:45;;;;;;;13.10;11.90;;;18.40;99.90;;;;;;4994047;28;20193;-74
2021/07/09 01:34:13;;;;;;;15.23;13.83;;;18.40;99.90;;;;;;4994742;28;20458;-74
2021/07/09 01:36:42;;;;;;;15.00;13.67;;;18.40;99.90;;;;;;4999259;28;20986;-75
2021/07/09 01:39:10;;;;;;;15.23;13.80;;;18.40;99.90;;;;;;5011975;28;20453;-74
2021/07/09 01:41:40;;;;;;;14.33;12.90;;;18.40;99.90;;;;;;5013379;28;20817;-74
2021/07/09 01:44:08;;;;;;;15.73;14.20;;;18.40;99.90;;;;;;5012077;28;20870;-74
2021/07/09 01:46:37;;;;;;;15.20;13.30;;;18.40;99.90;;;;;;5015637;28;20431;-73
2021/07/09 01:49:05;;;;;;;15.73;13.93;;;18.30;99.90;;;;;;5005872;28;20464;-74
2021/07/09 01:54:37;;;;;;;15.27;13.73;;;18.30;99.90;;;;;;1489972;26;20484;-76
2021/07/09 01:57:06;;;;;;;15.10;13.10;;;18.30;99.90;;;;;;5053153;28;20472;-76
2021/07/09 01:59:35;;;;;;;15.23;13.60;;;18.30;99.90;;;;;;5049493;28;20456;-76
2021/07/09 02:02:03;;;;;;;17.13;15.50;;;18.30;99.90;;;;;;5031828;28;20553;-76
2021/07/09 02:04:32;;;;;;;16.80;15.10;;;18.30;99.90;;;;;;5031766;28;20440;-76
2021/07/09 02:07:00;;;;;;;16.10;14.50;;;18.30;99.90;;;;;;5031832;28;20548;-76
2021/07/09 02:09:28;;;;;;;16.03;14.47;;;18.30;99.90;;;;;;5033089;28;20437;-76
2021/07/09 02:11:56;;;;;;;17.17;15.43;;;18.30;99.90;;;;;;5033069;28;20479;-76
2021/07/09 02:14:26;;;;;;;16.07;14.57;;;18.30;99.90;;;;;;5033266;28;20434;-76
2021/07/09 02:16:54;;;;;;;14.50;13.10;;;18.30;99.90;;;;;;5031573;28;20474;-76
2021/07/09 02:19:23;;;;;;;17.17;15.37;;;18.30;99.90;;;;;;5030911;28;20978;-76
2021/07/09 02:21:57;;;;;;;17.63;13.33;;;18.30;99.90;;;;;;5032445;28;20905;-76
2021/07/09 02:24:25;;;;;;;15.90;14.43;;;18.30;99.90;;;;;;5024144;28;20438;-76
2021/07/09 02:26:54;;;;;;;15.57;14.00;;;18.30;99.90;;;;;;5013385;28;20782;-75
2021/07/09 02:29:22;;;;;;;14.33;13.03;;;18.30;99.90;;;;;;5013342;28;20465;-76
2021/07/09 02:31:52;;;;;;;15.63;13.85;;;18.30;99.90;;;;;;5010826;28;20529;-75
2021/07/09 02:34:23;;;;;;;14.57;13.07;;;18.40;99.90;;;;;;5012102;28;20782;-76
2021/07/09 02:36:51;;;;;;;15.03;12.30;;;18.40;99.90;;;;;;5013314;28;20463;-75
2021/07/09 02:39:20;;;;;;;14.98;13.40;;;18.40;99.90;;;;;;5020319;28;20477;-76
2021/07/09 02:41:48;;;;;;;13.97;12.40;;;18.40;99.90;;;;;;5032258;28;20199;-76
2021/07/09 02:44:16;;;;;;;15.00;11.27;;;18.40;99.90;;;;;;5032933;28;20944;-76
2021/07/09 02:46:44;;;;;;;13.40;12.10;;;18.40;99.90;;;;;;5032693;28;20527;-75
2021/07/09 02:49:14;;;;;;;13.17;11.83;;;18.40;99.90;;;;;;5031272;28;20456;-76
2021/07/09 02:51:43;;;;;;;13.30;12.07;;;18.40;99.90;;;;;;5032652;28;20520;-76
2021/07/09 02:54:14;;;;;;;11.47;10.43;;;18.40;99.90;;;;;;5033982;28;20434;-76
2021/07/09 02:56:42;;;;;;;12.63;11.50;;;18.40;99.90;;;;;;5034877;28;20483;-76
2021/07/09 02:59:11;;;;;;;12.80;11.50;;;18.40;99.90;;;;;;5028696;28;20894;-76
2021/07/09 03:01:41;;;;;;;11.90;10.70;;;18.40;99.90;;;;;;5015046;28;20444;-76
2021/07/09 03:04:10;;;;;;;14.00;12.73;;;18.40;99.90;;;;;;5032674;28;20859;-76
2021/07/09 03:06:40;;;;;;;14.60;13.10;;;18.40;99.90;;;;;;5036329;28;20483;-76
2021/07/09 03:09:09;;;;;;;12.97;11.67;;;18.40;99.90;;;;;;5036035;28;20482;-76
2021/07/09 03:11:37;;;;;;;13.13;11.93;;;18.40;99.90;;;;;;5016244;28;20442;-76
2021/07/09 03:14:07;;;;;;;12.67;11.37;;;18.40;99.90;;;;;;5031671;28;20437;-75
2021/07/09 03:16:36;;;;;;;12.10;10.90;;;18.40;99.90;;;;;;5034474;28;20475;-75
2021/07/09 03:19:06;;;;;;;12.83;11.53;;;18.40;99.90;;;;;;5034549;28;20447;-75
2021/07/09 03:21:34;;;;;;;12.97;11.77;;;18.40;99.90;;;;;;5035734;28;20467;-76
2021/07/09 03:24:05;;;;;;;15.53;13.93;;;18.40;99.90;;;;;;5016492;28;20819;-76
2021/07/09 03:26:34;;;;;;;14.03;12.70;;;18.40;99.90;;;;;;5015365;28;20836;-75
2021/07/09 03:29:03;;;;;;;14.50;12.80;;;18.40;99.90;;;;;;5034425;28;20447;-75
2021/07/09 03:31:33;;;;;;;15.97;14.00;;;18.40;99.90;;;;;;5035694;28;20464;-76
2021/07/09 03:34:01;;;;;;;18.10;15.45;;;18.40;99.90;;;;;;5034161;28;20390;-76
2021/07/09 03:36:31;;;;;;;16.40;14.80;;;18.40;99.90;;;;;;5035411;28;20687;-76
2021/07/09 03:39:00;;;;;;;15.80;14.30;;;18.40;99.90;;;;;;5034552;28;20539;-76
2021/07/09 03:41:29;;;;;;;15.37;13.77;;;18.40;99.90;;;;;;5033904;28;20511;-76
2021/07/09 03:43:58;;;;;;;15.17;13.67;;;18.40;99.90;;;;;;5030459;28;20451;-76
2021/07/09 03:46:28;;;;;;;13.60;12.30;;;18.50;99.90;;;;;;5027002;28;20440;-76
2021/07/09 03:48:56;;;;;;;14.23;12.80;;;18.50;99.90;;;;;;5035293;28;20468;-76
2021/07/09 03:51:24;;;;;;;15.03;13.17;;;18.50;99.90;;;;;;5036503;28;20501;-76
2021/07/09 03:53:54;;;;;;;15.07;13.67;;;18.50;99.90;;;;;;5033211;28;20445;-76
2021/07/09 03:56:22;;;;;;;15.57;13.90;;;18.50;99.90;;;;;;5015350;28;20488;-76
2021/07/09 03:58:52;;;;;;;15.23;13.67;;;18.50;99.90;;;;;;5016240;28;20799;-76
2021/07/09 04:01:20;;;;;;;14.60;13.10;;;18.60;99.90;;;;;;5014270;28;20478;-76
2021/07/09 04:03:48;;;;;;;15.60;14.20;;;18.60;99.90;;;;;;5013964;28;20524;-76
2021/07/09 04:06:16;;;;;;;14.67;13.37;;;18.60;99.90;;;;;;5016431;28;20454;-76
2021/07/09 04:08:45;;;;;;;15.80;14.40;;;18.60;99.90;;;;;;5013996;28;20453;-76
2021/07/09 04:11:14;;;;;;;17.13;14.90;;;18.60;99.90;;;;;;5016969;28;20466;-76
2021/07/09 04:13:42;;;;;;;15.30;13.83;;;18.60;99.90;;;;;;5016823;28;20455;-76
2021/07/09 04:16:12;;;;;;;16.27;14.80;;;18.60;99.90;;;;;;5014932;28;20496;-76
2021/07/09 04:18:42;;;;;;;15.03;13.53;;;18.60;99.90;;;;;;5020501;28;20476;-76
2021/07/09 04:21:10;;;;;;;14.73;13.23;;;18.60;99.90;;;;;;5033420;28;20471;-76
2021/07/09 04:23:38;;;;;;;15.37;13.97;;;18.60;99.90;;;;;;5033304;28;20481;-76
2021/07/09 04:26:06;;;;;;;16.73;13.83;;;18.70;99.90;;;;;;5033205;28;20555;-76
2021/07/09 04:28:34;;;;;;;17.47;15.77;;;18.60;99.90;;;;;;5015386;28;20441;-76
2021/07/09 04:31:02;;;;;;;13.43;12.23;;;18.70;99.90;;;;;;5014944;28;20477;-76
2021/07/09 04:33:32;;;;;;;14.77;13.27;;;18.70;99.90;;;;;;5014689;28;20804;-76
2021/07/09 04:36:00;;;;;;;13.10;11.70;;;18.70;99.90;;;;;;5029758;28;20528;-76
2021/07/09 04:38:28;;;;;;;13.60;12.43;;;18.70;99.90;;;;;;5014885;28;20449;-76
2021/07/09 04:40:56;;;;;;;14.50;13.10;;;18.70;99.90;;;;;;5017551;28;20452;-76
2021/07/09 04:43:24;;;;;;;15.10;12.73;;;18.70;99.90;;;;;;5033102;28;20715;-76
2021/07/09 04:45:52;;;;;;;12.50;11.30;;;18.70;99.90;;;;;;5034233;28;20512;-76
2021/07/09 04:48:20;;;;;;;13.00;11.60;;;18.70;99.90;;;;;;5032696;28;20503;-76
2021/07/09 04:50:50;;;;;;;13.07;11.52;;;18.70;99.90;;;;;;5024777;28;20965;-76
2021/07/09 04:53:18;;;;;;;10.80;9.80;;;18.70;99.90;;;;;;5014560;28;20245;-76
2021/07/09 04:55:48;;;;;;;12.07;10.50;;;18.80;99.90;;;;;;5029537;28;20456;-76
2021/07/09 04:58:16;;;;;;;11.70;10.50;;;18.70;99.90;;;;;;5030559;28;20469;-76
2021/07/09 05:00:44;;;;;;;11.53;10.33;;;18.70;99.90;;;;;;5032534;28;20493;-76
2021/07/09 05:03:13;;;;;;;11.10;10.10;;;18.70;99.90;;;;;;5032605;28;20440;-76
2021/07/09 05:05:44;;;;;;;10.97;9.97;;;18.70;99.90;;;;;;5013021;28;20459;-76
2021/07/09 05:08:13;;;;;;;10.67;9.67;;;18.70;99.90;;;;;;5012826;28;20448;-76
2021/07/09 05:10:42;;;;;;;11.37;9.87;;;18.70;99.90;;;;;;5014505;28;20556;-76
2021/07/09 05:13:11;;;;;;;9.93;8.87;;;18.80;99.90;;;;;;5012746;28;20448;-76
2021/07/09 05:15:39;;;;;;;9.50;8.60;;;18.70;99.90;;;;;;5012508;28;20493;-76
2021/07/09 05:18:08;;;;;;;9.90;9.00;;;18.80;99.90;;;;;;5014085;28;20473;-76
2021/07/09 05:20:36;;;;;;;10.33;9.33;;;18.80;99.90;;;;;;5014057;28;20571;-76
2021/07/09 05:23:05;;;;;;;9.80;8.50;;;18.80;99.90;;;;;;5014079;28;20446;-75
2021/07/09 05:25:34;;;;;;;10.10;9.00;;;18.80;99.90;;;;;;5012452;28;20882;-76
2021/07/09 05:28:05;;;;;;;9.07;8.17;;;18.80;99.90;;;;;;5012537;28;20451;-76
2021/07/09 05:30:34;;;;;;;8.93;8.03;;;18.80;99.90;;;;;;5012351;28;20474;-76
2021/07/09 05:33:02;;;;;;;9.03;8.13;;;18.80;99.90;;;;;;5013651;28;20490;-76
2021/07/09 05:35:35;;;;;;;10.37;9.47;;;18.90;99.90;;;;;;5012296;28;20509;-75
2021/07/09 05:38:04;;;;;;;10.43;9.40;;;18.90;99.90;;;;;;5013626;28;20557;-76
2021/07/09 05:40:34;;;;;;;8.80;7.90;;;18.90;99.90;;;;;;5012360;28;20998;-76
2021/07/09 05:43:03;;;;;;;9.13;8.33;;;18.90;99.90;;;;;;5012506;28;20539;-76
2021/07/09 05:45:32;;;;;;;9.27;7.83;;;18.90;99.90;;;;;;5015129;28;20450;-76
2021/07/09 05:48:01;;;;;;;9.70;8.50;;;18.90;99.90;;;;;;5012930;28;20450;-76
2021/07/09 05:50:29;;;;;;;9.73;7.20;;;19.00;99.90;;;;;;5012231;28;20574;-76
2021/07/09 05:52:57;;;;;;;9.67;8.70;;;19.00;99.90;;;;;;5012157;28;20448;-76
2021/07/09 05:55:25;;;;;;;9.20;8.30;;;19.00;99.90;;;;;;5012105;28;20537;-76
2021/07/09 05:57:55;;;;;;;8.50;7.13;;;19.00;99.90;;;;;;5013668;28;20217;-76
2021/07/09 06:00:23;;;;;;;8.27;7.23;;;19.10;99.90;;;;;;5013552;28;20521;-76
2021/07/09 06:02:51;;;;;;;6.73;6.03;;;19.10;99.90;;;;;;5013649;28;20955;-76
2021/07/09 06:05:20;;;;;;;8.23;7.33;;;19.10;99.90;;;;;;5013758;28;20994;-76
2021/07/09 06:07:48;;;;;;;8.50;7.07;;;19.10;99.90;;;;;;5012815;28;20531;-76
2021/07/09 06:10:16;;;;;;;8.10;6.77;;;19.10;99.90;;;;;;5013756;28;20466;-76
2021/07/09 06:12:44;;;;;;;8.23;7.43;;;19.10;99.90;;;;;;5013529;28;20849;-76
2021/07/09 06:15:14;;;;;;;6.77;6.17;;;19.10;99.90;;;;;;5013545;28;20457;-75
2021/07/09 06:17:42;;;;;;;7.37;6.40;;;19.20;99.90;;;;;;5013880;28;21042;-76
2021/07/09 06:20:11;;;;;;;8.07;7.37;;;19.20;99.90;;;;;;5013369;28;21055;-76
2021/07/09 06:22:39;;;;;;;8.07;7.27;;;19.20;99.90;;;;;;5012065;28;20562;-76
2021/07/09 06:25:08;;;;;;;7.70;6.47;;;19.20;99.90;;;;;;5011997;28;20817;-76
2021/07/09 06:27:36;;;;;;;8.10;7.30;;;19.20;99.90;;;;;;5013798;28;20573;-76
2021/07/09 06:30:06;;;;;;;10.07;9.07;;;19.20;99.90;;;;;;5015549;28;20474;-76
2021/07/09 06:32:36;;;;;;;8.40;7.60;;;19.20;99.90;;;;;;5016019;28;20540;-75
2021/07/09 06:35:06;;;;;;;11.93;8.60;;;19.20;99.90;;;;;;5015851;28;20459;-76
2021/07/09 06:37:35;;;;;;;10.33;9.33;;;19.20;99.90;;;;;;5015810;28;20463;-76
2021/07/09 06:40:05;;;;;;;11.67;10.50;;;19.20;99.90;;;;;;5015624;28;21008;-76
2021/07/09 06:42:33;;;;;;;11.27;10.27;;;19.20;99.90;;;;;;5015845;28;20447;-76
2021/07/09 06:45:02;;;;;;;12.37;10.93;;;19.20;99.90;;;;;;5017066;28;20979;-76
2021/07/09 06:47:30;;;;;;;12.53;11.33;;;19.30;99.90;;;;;;5015308;28;20553;-76
2021/07/09 06:50:00;;;;;;;13.80;11.83;;;19.30;99.90;;;;;;5015191;28;20462;-76
2021/07/09 06:52:28;;;;;;;13.88;12.45;;;19.30;99.90;;;;;;5015777;28;20454;-76
2021/07/09 06:54:56;;;;;;;16.10;14.43;;;19.40;99.90;;;;;;5016557;28;20271;-77
2021/07/09 06:57:24;;;;;;;15.90;14.40;;;19.50;99.90;;;;;;5015399;28;20507;-76
2021/07/09 06:59:52;;;;;;;17.07;15.17;;;19.50;99.90;;;;;;5015151;28;20467;-76
2021/07/09 07:02:24;;;;;;;16.13;14.60;;;19.50;99.90;;;;;;5016573;28;20935;-76
2021/07/09 07:04:52;;;;;;;16.80;14.33;;;19.50;99.90;;;;;;5015982;28;20447;-76
2021/07/09 07:07:22;;;;;;;17.57;14.90;;;19.50;99.90;;;;;;5016932;28;20483;-76
2021/07/09 07:09:50;;;;;;;18.63;15.63;;;19.50;99.90;;;;;;5017630;28;20455;-76
2021/07/09 07:12:18;;;;;;;17.53;15.50;;;19.50;99.90;;;;;;5015566;28;20459;-76
2021/07/09 07:14:47;;;;;;;17.40;15.60;;;19.50;99.90;;;;;;5016586;28;20439;-77
2021/07/09 07:17:16;;;;;;;17.83;15.93;;;19.50;99.90;;;;;;5017041;28;20485;-76
2021/07/09 07:19:44;;;;;;;18.90;15.43;;;19.50;99.90;;;;;;5016293;28;20487;-76
2021/07/09 07:22:12;;;;;;;17.67;15.90;;;19.60;99.90;;;;;;5016374;28;20812;-76
2021/07/09 07:24:44;;;;;;;16.50;14.80;;;19.60;99.90;;;;;;5014913;28;20941;-76
2021/07/09 07:27:13;;;;;;;17.70;15.90;;;19.60;99.90;;;;;;5016264;28;20480;-76
2021/07/09 07:29:41;;;;;;;19.10;17.20;;;19.60;99.90;;;;;;5016050;28;21010;-76
2021/07/09 07:32:09;;;;;;;16.40;14.30;;;19.60;99.90;;;;;;5015893;28;20489;-76
2021/07/09 07:34:38;;;;;;;22.10;16.83;;;19.60;99.90;;;;;;5016269;28;20447;-77
2021/07/09 07:37:07;;;;;;;19.50;16.60;;;19.60;99.90;;;;;;5016204;28;20444;-76
2021/07/09 07:39:35;;;;;;;17.97;15.40;;;19.60;99.90;;;;;;5015377;28;20497;-76
2021/07/09 07:42:05;;;;;;;17.40;15.33;;;19.60;99.90;;;;;;5016561;28;20469;-76
2021/07/09 07:44:34;;;;;;;19.43;15.47;;;19.60;99.90;;;;;;5016252;28;20479;-77
2021/07/09 07:47:02;;;;;;;16.87;15.07;;;19.60;99.90;;;;;;5015812;28;20523;-77
2021/07/09 07:49:30;;;;;;;17.97;15.50;;;19.60;99.90;;;;;;5015611;28;21030;-77
2021/07/09 07:51:58;;;;;;;20.43;16.20;;;19.60;99.90;;;;;;5014626;28;20530;-77
2021/07/09 07:54:29;;;;;;;17.63;15.47;;;19.60;99.90;;;;;;5016094;28;20815;-76
2021/07/09 07:56:57;;;;;;;16.83;14.63;;;19.60;99.90;;;;;;5014971;28;20435;-76
2021/07/09 07:59:29;;;;;;;18.63;16.73;;;19.70;99.90;;;;;;5015334;28;20223;-77
2021/07/09 08:01:57;;;;;;;18.73;15.57;;;19.70;99.90;;;;;;5015593;28;20485;-76
2021/07/09 08:04:26;;;;;;;22.33;15.10;;;19.70;99.90;;;;;;5014871;23;20577;-73
2021/07/09 08:06:54;;;;;;;17.00;15.40;;;19.70;99.90;;;;;;4995786;28;20201;-73
2021/07/09 08:09:22;;;;;;;19.20;14.53;;;19.70;99.90;;;;;;4995241;28;20474;-73
2021/07/09 08:11:52;;;;;;;20.57;16.47;;;19.70;99.90;;;;;;4994287;28;20449;-73
2021/07/09 08:14:20;;;;;;;16.80;14.07;;;19.70;99.90;;;;;;4995563;28;20559;-73
2021/07/09 08:16:51;;;;;;;14.67;13.10;;;19.70;99.90;;;;;;4995130;28;20445;-73
2021/07/09 08:19:20;;;;;;;18.37;16.20;;;19.70;99.90;;;;;;4993779;28;20468;-75
2021/07/09 08:21:49;;;;;;;15.70;14.10;;;19.70;99.90;;;;;;4995480;28;20448;-73
2021/07/09 08:24:19;;;;;;;16.13;14.33;;;19.70;99.90;;;;;;4995207;28;20455;-73
2021/07/09 08:26:47;;;;;;;16.00;14.50;;;19.70;99.90;;;;;;4993862;28;20881;-73
2021/07/09 08:29:15;;;;;;;15.70;14.07;;;19.70;99.90;;;;;;4994683;28;20546;-73
2021/07/09 08:31:54;;;;;;;14.20;12.80;;;19.70;99.90;;;;;;4993602;28;20448;-73
2021/07/09 08:34:22;;;;;;;15.73;14.03;;;19.70;99.90;;;;;;4994778;28;20448;-73
2021/07/09 08:36:50;;;;;;;16.40;14.80;;;19.70;99.90;;;;;;4993370;28;20454;-73
2021/07/09 08:39:19;;;;;;;13.83;12.47;;;19.70;99.90;;;;;;4994853;28;20511;-73
2021/07/09 08:41:49;;;;;;;15.00;12.80;;;19.70;99.90;;;;;;4994734;28;20436;-73
2021/07/09 08:44:17;;;;;;;12.33;11.10;;;19.80;99.90;;;;;;4993361;28;20463;-73
2021/07/09 08:46:45;;;;;;;13.27;10.40;;;19.80;99.90;;;;;;4993448;28;20445;-73
2021/07/09 08:49:16;;;;;;;12.20;10.00;;;19.80;99.90;;;;;;4994744;28;20461;-73
2021/07/09 08:51:45;;;;;;;12.33;10.37;;;19.80;99.90;;;;;;4993680;28;20479;-73
2021/07/09 08:54:15;;;;;;;11.00;9.80;;;19.90;99.90;;;;;;4994690;28;20547;-73
2021/07/09 08:56:43;;;;;;;10.77;9.23;;;19.90;99.90;;;;;;4993195;28;20448;-72
2021/07/09 08:59:11;;;;;;;11.23;9.70;;;19.90;99.90;;;;;;4993353;28;20848;-72
2021/07/09 09:01:51;;;;;;;9.37;8.40;;;19.90;99.90;;;;;;4995260;28;20575;-72
2021/07/09 09:04:33;;;;;;;9.17;8.17;;;19.90;99.90;;;;;;4994618;28;20543;-72
2021/07/09 09:07:04;;;;;;;10.47;7.80;;;19.90;99.90;;;;;;4995421;28;20428;-71
2021/07/09 09:09:34;;;;;;;8.80;7.90;;;19.90;99.90;;;;;;5009482;28;20445;-72
2021/07/09 09:12:05;;;;;;;8.70;7.43;;;19.90;99.90;;;;;;4995159;28;20247;-72
2021/07/09 09:14:35;;;;;;;10.30;7.87;;;19.90;99.90;;;;;;4995119;28;20456;-72
2021/07/09 09:17:24;;;;;;;8.23;7.47;;;19.90;99.90;;;;;;4995442;28;20436;-72
2021/07/09 09:20:13;;;;;;;9.23;7.70;;;19.90;99.90;;;;;;4994891;28;20931;-72
2021/07/09 09:23:01;;;;;;;8.60;7.23;;;19.90;99.90;;;;;;4993410;28;20436;-72
2021/07/09 09:25:32;;;;;;;7.93;6.80;;;19.90;99.90;;;;;;4995197;28;20516;-72
2021/07/09 09:28:03;;;;;;;7.93;7.13;;;19.90;99.90;;;;;;4994824;28;20433;-72
2021/07/09 09:30:32;;;;;;;8.40;7.47;;;20.00;99.90;;;;;;4994455;28;20452;-72
2021/07/09 09:33:04;;;;;;;9.27;8.37;;;20.10;99.90;;;;;;4995209;28;20442;-72
2021/07/09 09:35:37;;;;;;;8.07;6.90;;;20.10;99.90;;;;;;4994393;28;20468;-72
2021/07/09 09:38:08;;;;;;;11.97;6.80;;;20.20;99.90;;;;;;4993059;28;20437;-72
2021/07/09 09:40:38;;;;;;;9.40;8.10;;;20.30;99.90;;;;;;4997929;28;20512;-72
2021/07/09 09:43:09;;;;;;;8.13;7.33;;;20.40;99.90;;;;;;4994402;28;20503;-72
2021/07/09 09:45:39;;;;;;;7.30;6.70;;;20.50;99.90;;;;;;5009624;28;20496;-72
2021/07/09 09:48:09;;;;;;;7.23;6.53;;;20.60;99.90;;;;;;4994356;28;20941;-72
2021/07/09 09:50:47;;;;;;;5.40;4.90;;;20.60;99.90;;;;;;4994206;28;20898;-72
2021/07/09 09:53:15;;;;;;;8.30;6.30;;;20.70;99.90;;;;;;4993489;28;20874;-72
2021/07/09 09:55:44;;;;;;;7.17;5.27;;;20.80;99.90;;;;;;4992825;28;20441;-72
2021/07/09 09:58:15;;;;;;;6.00;5.30;;;20.90;99.90;;;;;;4994348;28;20445;-72
2021/07/09 10:00:45;;;;;;;6.30;5.00;;;21.00;99.90;;;;;;4994712;28;20505;-72
2021/07/09 10:03:19;;;;;;;7.40;6.70;;;21.00;99.90;;;;;;4996316;28;20425;-72
2021/07/09 10:05:50;;;;;;;6.80;6.10;;;21.00;99.90;;;;;;4998777;28;20192;-72
2021/07/09 10:08:20;;;;;;;9.70;7.00;;;21.00;99.90;;;;;;4997099;28;20476;-72
2021/07/09 10:10:49;;;;;;;8.93;7.37;;;21.00;99.90;;;;;;4998265;28;20494;-71
2021/07/09 10:13:20;;;;;;;7.88;7.00;;;21.10;99.90;;;;;;4997524;28;20571;-72
2021/07/09 10:15:50;;;;;;;6.80;6.07;;;21.10;99.90;;;;;;4996798;28;20198;-72
2021/07/09 10:18:20;;;;;;;7.90;5.77;;;21.10;99.90;;;;;;4999453;28;20460;-72
2021/07/09 10:20:50;;;;;;;8.33;7.53;;;21.10;99.90;;;;;;4997765;28;20571;-72
2021/07/09 10:23:22;;;;;;;7.40;6.47;;;21.20;99.90;;;;;;5013203;28;20826;-71
2021/07/09 10:25:52;;;;;;;7.30;6.37;;;21.20;99.90;;;;;;4997947;28;20890;-72
2021/07/09 10:28:22;;;;;;;7.93;5.73;;;21.20;99.90;;;;;;4996007;28;20561;-72
2021/07/09 10:30:53;;;;;;;6.07;5.40;;;21.30;99.90;;;;;;4995826;28;20493;-72
2021/07/09 10:33:32;;;;;;;6.90;6.20;;;21.30;99.90;;;;;;4996264;28;20445;-72
2021/07/09 10:36:07;;;;;;;5.67;5.07;;;21.30;99.90;;;;;;4995947;28;20445;-72
2021/07/09 10:38:37;;;;;;;9.00;6.50;;;21.40;99.90;;;;;;4997205;28;20422;-72
2021/07/09 10:41:13;;;;;;;8.00;6.37;;;21.40;99.90;;;;;;4996902;28;20511;-72
2021/07/09 10:43:41;;;;;;;7.00;5.37;;;21.40;99.90;;;;;;4997383;28;20429;-72
2021/07/09 10:46:10;;;;;;;7.17;6.47;;;21.40;99.90;;;;;;4997237;28;20487;-72
2021/07/09 10:48:39;;;;;;;6.33;5.47;;;21.40;99.90;;;;;;4996331;28;20437;-72
2021/07/09 10:51:12;;;;;;;7.17;5.10;;;21.40;99.90;;;;;;4997242;28;20988;-72
2021/07/09 10:53:41;;;;;;;7.73;6.03;;;21.40;99.90;;;;;;4997468;28;20461;-72
2021/07/09 10:56:12;;;;;;;6.90;6.20;;;21.50;99.90;;;;;;4996954;28;20531;-72
2021/07/09 10:58:44;;;;;;;7.87;7.17;;;21.50;99.90;;;;;;4995998;28;20447;-72
2021/07/09 11:01:15;;;;;;;7.77;6.43;;;21.50;99.90;;;;;;4995346;28;20479;-72
2021/07/09 11:03:45;;;;;;;7.05;6.35;;;21.50;99.90;;;;;;4997130;28;20539;-72
2021/07/09 11:06:22;;;;;;;8.13;6.80;;;21.50;99.90;;;;;;4996832;28;20178;-72
2021/07/09 11:09:04;;;;;;;8.77;7.40;;;21.50;99.90;;;;;;4995217;28;20440;-72
2021/07/09 11:11:48;;;;;;;9.40;8.40;;;21.50;99.90;;;;;;4996003;28;20433;-72
2021/07/09 11:14:33;;;;;;;8.63;7.82;;;21.50;99.90;;;;;;4994546;28;20519;-72
2021/07/09 11:17:14;;;;;;;7.53;6.83;;;21.50;99.90;;;;;;4997515;28;20186;-72
2021/07/09 11:19:47;;;;;;;9.57;8.70;;;21.50;99.90;;;;;;4994993;28;20505;-72
2021/07/09 11:22:18;;;;;;;8.93;7.43;;;21.50;99.90;;;;;;4996321;28;20433;-72
2021/07/09 11:24:53;;;;;;;7.53;6.80;;;21.40;99.90;;;;;;4998204;28;20914;-72
2021/07/09 11:27:27;;;;;;;9.97;7.13;;;21.40;99.90;;;;;;4996261;28;20471;-72
2021/07/09 11:30:01;;;;;;;7.90;7.10;;;21.40;99.90;;;;;;5011372;28;20531;-72
2021/07/09 11:32:29;;;;;;;8.83;7.80;;;21.40;99.90;;;;;;4996055;28;20487;-72
2021/07/09 11:34:58;;;;;;;11.03;8.63;;;21.40;99.90;;;;;;4994829;28;20453;-72
2021/07/09 11:37:29;;;;;;;7.80;7.00;;;21.40;99.90;;;;;;4996369;28;20791;-72
2021/07/09 11:39:58;;;;;;;9.97;7.20;;;21.40;99.90;;;;;;4995903;28;20473;-72
2021/07/09 11:42:28;;;;;;;7.50;6.77;;;21.40;99.90;;;;;;4995846;28;20488;-72
2021/07/09 11:44:59;;;;;;;6.90;6.30;;;21.40;99.90;;;;;;4996873;28;20516;-72
2021/07/09 11:47:29;;;;;;;8.03;6.53;;;21.50;99.90;;;;;;4994615;28;20499;-72
2021/07/09 11:50:00;;;;;;;7.73;7.10;;;21.50;99.90;;;;;;4995499;28;20469;-72
2021/07/09 11:52:30;;;;;;;7.03;6.13;;;21.50;99.90;;;;;;4995706;28;20430;-72
2021/07/09 11:55:01;;;;;;;7.57;6.87;;;21.50;99.90;;;;;;4996198;28;20512;-72
2021/07/09 11:57:32;;;;;;;8.00;7.30;;;21.50;99.90;;;;;;4996150;28;20429;-72
2021/07/09 12:00:10;;;;;;;8.50;7.70;;;21.40;99.90;;;;;;4995578;28;20563;-72
2021/07/09 12:02:43;;;;;;;9.10;7.18;;;21.50;99.90;;;;;;5010544;28;20460;-72
2021/07/09 12:05:13;;;;;;;6.63;6.03;;;21.50;99.90;;;;;;4995408;28;20555;-72
2021/07/09 12:07:44;;;;;;;7.90;7.10;;;21.50;99.90;;;;;;4994164;28;20527;-72
2021/07/09 12:10:14;;;;;;;7.03;6.43;;;21.50;99.90;;;;;;4994298;28;20568;-72
2021/07/09 12:12:45;;;;;;;7.70;7.00;;;21.50;99.90;;;;;;4993850;28;20946;-72
2021/07/09 12:15:19;;;;;;;7.80;7.10;;;21.60;99.90;;;;;;4995513;28;20233;-72
2021/07/09 12:17:48;;;;;;;9.33;8.43;;;21.60;99.90;;;;;;4993838;28;20535;-72
2021/07/09 12:20:22;;;;;;;8.77;7.50;;;21.60;99.90;;;;;;4994180;28;20559;-72
2021/07/09 12:22:55;;;;;;;9.60;8.60;;;21.60;99.90;;;;;;4994161;28;20536;-72
2021/07/09 12:25:26;;;;;;;9.00;8.20;;;21.60;99.90;;;;;;4995531;28;20426;-72
2021/07/09 12:27:56;;;;;;;9.37;8.37;;;21.60;99.90;;;;;;4995362;28;20488;-72
2021/07/09 12:30:26;;;;;;;9.10;8.20;;;21.60;99.90;;;;;;4994341;28;20472;-73
2021/07/09 12:32:57;;;;;;;8.90;8.00;;;21.60;99.90;;;;;;4995008;28;20445;-73
2021/07/09 12:35:42;;;;;;;12.03;10.93;;;21.60;99.90;;;;;;4995017;28;20878;-73
2021/07/09 12:38:13;;;;;;;9.50;8.60;;;21.60;99.90;;;;;;4993658;28;20795;-73
2021/07/09 12:40:43;;;;;;;9.73;8.07;;;21.60;99.90;;;;;;4993509;28;20567;-73
2021/07/09 12:43:23;;;;;;;12.73;8.50;;;21.60;99.90;;;;;;4993636;28;20539;-73
2021/07/09 12:45:56;;;;;;;10.13;8.60;;;21.60;99.90;;;;;;4994824;28;20437;-73
2021/07/09 12:48:34;;;;;;;9.90;8.90;;;21.60;99.90;;;;;;4995015;28;20496;-73
2021/07/09 12:51:16;;;;;;;10.47;8.47;;;21.60;99.90;;;;;;4994700;28;20544;-73
2021/07/09 12:53:53;;;;;;;10.53;9.13;;;21.50;99.90;;;;;;4993395;28;20477;-73